createdAt,value
2023-04-03T00:01:06.656Z,0.70
2023-04-03T00:03:34.342Z,0.80
2023-04-03T00:06:01.648Z,0.70
2023-04-03T00:08:28.554Z,0.70
2023-04-03T00:10:55.404Z,0.70
2023-04-03T00:13:22.267Z,0.70
2023-04-03T00:15:49.136Z,0.70
2023-04-03T00:18:16.291Z,0.70
2023-04-03T00:20:43.400Z,0.60
2023-04-03T00:23:10.471Z,0.60
2023-04-03T00:25:37.649Z,0.60
2023-04-03T00:28:05.674Z,0.60
2023-04-03T00:30:32.629Z,0.60
2023-04-03T00:32:59.624Z,0.60
2023-04-03T00:35:26.592Z,0.60
2023-04-03T00:37:54.740Z,0.60
2023-04-03T00:40:23.792Z,0.60
2023-04-03T00:42:56.486Z,0.50
2023-04-03T00:45:44.847Z,0.50
2023-04-03T00:48:18.328Z,0.50
2023-04-03T00:50:46.266Z,0.40
2023-04-03T00:53:18.631Z,0.40
2023-04-03T00:55:47.898Z,0.50
2023-04-03T00:58:18.785Z,0.50
2023-04-03T01:00:50.866Z,0.50
2023-04-03T01:03:17.690Z,0.50
2023-04-03T01:05:44.610Z,0.40
2023-04-03T01:08:11.820Z,0.40
2023-04-03T01:10:38.934Z,0.40
2023-04-03T01:13:24.353Z,0.40
2023-04-03T01:15:51.271Z,0.40
2023-04-03T01:18:18.231Z,0.30
2023-04-03T01:20:57.028Z,0.30
2023-04-03T01:23:37.823Z,0.40
2023-04-03T01:26:04.926Z,0.40
2023-04-03T01:28:35.166Z,0.30
2023-04-03T01:31:13.588Z,0.40
2023-04-03T01:33:40.554Z,0.40
2023-04-03T01:36:08.067Z,0.40
2023-04-03T01:38:35.121Z,0.30
2023-04-03T01:41:02.174Z,0.30
2023-04-03T01:43:29.068Z,0.30
2023-04-03T01:45:55.986Z,0.30
2023-04-03T01:48:23.196Z,0.20
2023-04-03T01:50:50.028Z,0.20
2023-04-03T01:53:17.005Z,0.30
2023-04-03T01:55:43.929Z,0.30
2023-04-03T01:58:10.812Z,0.20
2023-04-03T02:00:37.978Z,0.20
2023-04-03T02:03:05.168Z,0.20
2023-04-03T02:05:32.038Z,0.40
2023-04-03T02:07:58.912Z,0.30
2023-04-03T02:10:25.911Z,0.30
2023-04-03T02:12:52.953Z,0.30
2023-04-03T02:15:19.872Z,0.40
2023-04-03T02:17:46.791Z,0.40
2023-04-03T02:20:13.695Z,0.30
2023-04-03T02:22:40.718Z,0.30
2023-04-03T02:25:07.915Z,0.30
2023-04-03T02:27:34.843Z,0.30
2023-04-03T02:30:01.692Z,0.30
2023-04-03T02:32:28.607Z,0.30
2023-04-03T02:34:55.479Z,0.30
2023-04-03T02:37:22.513Z,0.20
2023-04-03T02:39:49.395Z,0.10
2023-04-03T02:42:16.295Z,0.00
2023-04-03T02:44:43.294Z,0.00
2023-04-03T02:47:10.308Z,0.00
2023-04-03T02:49:37.166Z,0.00
2023-04-03T02:52:04.125Z,-0.10
2023-04-03T02:54:30.973Z,0.00
2023-04-03T02:56:58.522Z,-0.10
2023-04-03T02:59:25.447Z,0.00
2023-04-03T03:01:52.419Z,0.00
2023-04-03T03:04:19.540Z,-0.10
2023-04-03T03:06:46.427Z,-0.20
2023-04-03T03:09:13.536Z,-0.20
2023-04-03T03:11:40.652Z,-0.20
2023-04-03T03:14:07.624Z,-0.30
2023-04-03T03:16:34.517Z,-0.20
2023-04-03T03:19:01.370Z,-0.30
2023-04-03T03:21:28.467Z,-0.30
2023-04-03T03:23:55.345Z,-0.40
2023-04-03T03:26:22.209Z,-0.40
2023-04-03T03:28:49.137Z,-0.40
2023-04-03T03:31:15.998Z,-0.40
2023-04-03T03:33:42.936Z,-0.40
2023-04-03T03:36:10.016Z,-0.50
2023-04-03T03:38:36.929Z,-0.50
2023-04-03T03:41:04.206Z,-0.60
2023-04-03T03:43:31.068Z,-0.50
2023-04-03T03:45:58.021Z,-0.50
2023-04-03T03:48:25.119Z,-0.60
2023-04-03T03:50:51.984Z,-0.60
2023-04-03T03:53:18.877Z,-0.70
2023-04-03T03:55:46.024Z,-0.70
2023-04-03T03:58:12.942Z,-0.70
2023-04-03T04:00:39.816Z,-0.70
2023-04-03T04:03:06.779Z,-0.70
2023-04-03T04:05:33.726Z,-0.60
2023-04-03T04:08:00.624Z,-0.60
2023-04-03T04:10:27.489Z,-0.60
2023-04-03T04:12:55.148Z,-0.60
2023-04-03T04:15:22.787Z,-0.60
2023-04-03T04:17:49.779Z,-0.60
2023-04-03T04:20:16.832Z,-0.50
2023-04-03T04:22:43.680Z,-0.50
2023-04-03T04:25:10.674Z,-0.50
2023-04-03T04:27:37.644Z,-0.60
2023-04-03T04:30:05.541Z,-0.50
2023-04-03T04:32:32.430Z,-0.50
2023-04-03T04:34:59.378Z,-0.50
2023-04-03T04:37:26.298Z,-0.40
2023-04-03T04:39:53.158Z,-0.40
2023-04-03T04:42:20.092Z,-0.50
2023-04-03T04:44:46.928Z,-0.40
2023-04-03T04:47:13.942Z,-0.30
2023-04-03T04:49:40.833Z,-0.40
2023-04-03T04:52:07.728Z,-0.40
2023-04-03T04:54:34.622Z,-0.40
2023-04-03T04:57:01.521Z,-0.30
2023-04-03T04:59:28.433Z,-0.30
2023-04-03T05:01:55.330Z,-0.20
2023-04-03T05:04:22.260Z,-0.20
2023-04-03T05:06:49.183Z,-0.10
2023-04-03T05:09:16.053Z,-0.20
2023-04-03T05:11:42.917Z,-0.10
2023-04-03T05:14:09.813Z,0.00
2023-04-03T05:16:36.732Z,0.00
2023-04-03T05:19:04.122Z,0.10
2023-04-03T05:21:32.381Z,0.20
2023-04-03T05:24:00.558Z,0.20
2023-04-03T05:26:27.610Z,0.20
2023-04-03T05:28:55.019Z,0.10
2023-04-03T05:31:22.048Z,0.30
2023-04-03T05:33:50.434Z,0.30
2023-04-03T05:36:17.373Z,0.30
2023-04-03T05:38:44.454Z,0.30
2023-04-03T05:41:12.110Z,0.50
2023-04-03T05:43:39.001Z,0.60
2023-04-03T05:46:11.509Z,0.70
2023-04-03T05:48:38.650Z,0.70
2023-04-03T05:51:07.373Z,0.70
2023-04-03T05:53:37.103Z,0.80
2023-04-03T05:56:04.864Z,0.80
2023-04-03T05:58:31.842Z,0.90
2023-04-03T06:00:58.778Z,1.00
2023-04-03T06:03:26.137Z,1.00
2023-04-03T06:05:53.472Z,1.10
2023-04-03T06:08:20.364Z,1.20
2023-04-03T06:10:47.246Z,1.30
2023-04-03T06:13:14.201Z,1.40
2023-04-03T06:15:41.096Z,1.50
2023-04-03T06:18:08.131Z,1.50
2023-04-03T06:20:35.353Z,1.60
2023-04-03T06:23:02.244Z,1.60
2023-04-03T06:25:29.090Z,1.70
2023-04-03T06:27:55.997Z,1.80
2023-04-03T06:30:22.944Z,1.90
2023-04-03T06:32:49.993Z,1.90
2023-04-03T06:35:16.924Z,2.00
2023-04-03T06:37:43.885Z,2.10
2023-04-03T06:40:20.456Z,2.10
2023-04-03T06:42:47.993Z,2.20
2023-04-03T06:45:15.144Z,2.20
2023-04-03T06:47:42.601Z,2.30
2023-04-03T06:50:11.478Z,2.30
2023-04-03T06:52:38.555Z,2.40
2023-04-03T06:55:05.862Z,2.40
2023-04-03T06:57:32.787Z,2.60
2023-04-03T06:59:59.750Z,2.60
2023-04-03T07:02:26.657Z,2.70
2023-04-03T07:04:53.676Z,2.70
2023-04-03T07:07:20.654Z,2.80
2023-04-03T07:09:47.504Z,2.90
2023-04-03T07:12:14.879Z,3.00
2023-04-03T07:14:41.876Z,3.00
2023-04-03T07:17:08.721Z,3.10
2023-04-03T07:19:35.594Z,3.20
2023-04-03T07:22:02.441Z,3.30
2023-04-03T07:24:29.324Z,3.30
2023-04-03T07:26:56.259Z,3.40
2023-04-03T07:29:23.106Z,3.50
2023-04-03T07:31:50.139Z,3.60
2023-04-03T07:34:17.011Z,3.70
2023-04-03T07:36:43.908Z,3.70
2023-04-03T07:39:10.767Z,3.90
2023-04-03T07:41:37.630Z,3.90
2023-04-03T07:44:04.492Z,4.00
2023-04-03T07:46:31.469Z,4.00
2023-04-03T07:48:58.746Z,4.00
2023-04-03T07:51:25.692Z,4.30
2023-04-03T07:53:52.570Z,4.30
2023-04-03T07:56:19.431Z,4.30
2023-04-03T07:58:46.253Z,4.50
2023-04-03T08:01:13.102Z,4.60
2023-04-03T08:03:40.466Z,4.60
2023-04-03T08:06:15.735Z,4.80
2023-04-03T08:08:43.280Z,4.90
2023-04-03T08:11:13.759Z,5.00
2023-04-03T08:13:40.690Z,5.00
2023-04-03T08:16:18.150Z,5.20
2023-04-03T08:18:45.205Z,6.20
2023-04-03T08:21:13.165Z,9.50
2023-04-03T08:23:41.481Z,10.90
2023-04-03T08:26:11.266Z,11.00
2023-04-03T08:28:38.448Z,12.30
2023-04-03T08:31:11.641Z,12.50
2023-04-03T08:33:39.793Z,12.40
2023-04-03T08:36:09.477Z,13.20
2023-04-03T08:38:36.328Z,14.10
2023-04-03T08:41:12.328Z,14.10
2023-04-03T08:43:58.162Z,14.10
2023-04-03T08:46:48.770Z,14.50
2023-04-03T08:49:29.193Z,14.60
2023-04-03T08:51:57.514Z,14.70
2023-04-03T08:55:00.902Z,14.70
2023-04-03T08:57:36.972Z,15.00
2023-04-03T09:00:14.979Z,15.00
2023-04-03T09:02:48.133Z,15.40
2023-04-03T09:05:22.552Z,12.30
2023-04-03T09:08:04.874Z,12.80
2023-04-03T09:10:36.421Z,13.80
2023-04-03T09:13:21.560Z,13.30
2023-04-03T09:15:48.674Z,12.50
2023-04-03T09:18:22.323Z,13.40
2023-04-03T09:21:13.941Z,13.30
2023-04-03T09:23:40.781Z,12.80
2023-04-03T09:26:15.668Z,13.20
2023-04-03T09:28:49.316Z,13.00
2023-04-03T09:31:30.382Z,12.60
2023-04-03T09:34:04.482Z,12.20
2023-04-03T09:36:43.181Z,12.00
2023-04-03T09:39:25.911Z,11.70
2023-04-03T09:42:20.180Z,11.90
2023-04-03T09:45:02.454Z,11.40
2023-04-03T09:47:31.405Z,11.10
2023-04-03T09:50:13.762Z,10.40
2023-04-03T09:52:42.007Z,9.50
2023-04-03T09:55:15.322Z,9.20
2023-04-03T09:57:42.528Z,9.10
2023-04-03T10:00:33.098Z,9.00
2023-04-03T10:03:00.465Z,10.00
2023-04-03T10:05:38.263Z,10.70
2023-04-03T10:08:17.126Z,11.10
2023-04-03T10:10:46.900Z,10.70
2023-04-03T10:13:21.495Z,11.20
2023-04-03T10:15:55.966Z,12.10
2023-04-03T10:18:29.018Z,12.60
2023-04-03T10:21:03.076Z,13.40
2023-04-03T10:23:40.832Z,13.10
2023-04-03T10:26:35.556Z,13.50
2023-04-03T10:29:14.360Z,14.10
2023-04-03T10:31:46.994Z,14.50
2023-04-03T10:34:42.354Z,14.00
2023-04-03T10:37:31.552Z,13.20
2023-04-03T10:40:04.368Z,13.40
2023-04-03T10:42:43.620Z,14.10
2023-04-03T10:45:22.607Z,14.70
2023-04-03T10:48:19.361Z,15.00
2023-04-03T10:51:01.669Z,15.40
2023-04-03T10:53:34.142Z,14.80
2023-04-03T10:56:32.896Z,14.40
2023-04-03T10:59:09.297Z,12.80
2023-04-03T11:01:41.701Z,12.50
2023-04-03T11:04:10.209Z,12.10
2023-04-03T11:06:49.760Z,11.70
2023-04-03T11:09:23.092Z,11.30
2023-04-03T11:11:52.657Z,11.30
2023-04-03T11:14:28.234Z,11.00
2023-04-03T11:17:05.194Z,11.20
2023-04-03T11:20:04.798Z,11.10
2023-04-03T11:22:42.041Z,11.10
2023-04-03T11:25:11.769Z,10.70
2023-04-03T11:28:05.957Z,10.60
2023-04-03T11:30:59.446Z,10.30
2023-04-03T11:33:33.148Z,10.60
2023-04-03T11:36:24.824Z,11.20
2023-04-03T11:38:56.517Z,10.90
2023-04-03T11:41:30.634Z,10.80
2023-04-03T11:44:04.889Z,11.10
2023-04-03T11:46:52.834Z,12.10
2023-04-03T11:49:52.084Z,12.60
2023-04-03T11:52:43.672Z,13.70
2023-04-03T11:55:31.615Z,14.60
2023-04-03T11:58:01.601Z,14.60
2023-04-03T12:00:49.698Z,15.30
2023-04-03T12:03:25.641Z,15.80
2023-04-03T12:05:57.317Z,16.10
2023-04-03T12:08:28.659Z,16.10
2023-04-03T12:11:13.615Z,16.00
2023-04-03T12:13:55.569Z,15.80
2023-04-03T12:16:31.098Z,16.20
2023-04-03T12:18:57.941Z,16.60
2023-04-03T12:21:45.095Z,17.10
2023-04-03T12:24:17.776Z,16.90
2023-04-03T12:26:58.622Z,16.70
2023-04-03T12:29:28.538Z,16.20
2023-04-03T12:32:19.976Z,14.70
2023-04-03T12:35:03.501Z,14.40
2023-04-03T12:38:22.091Z,15.00
2023-04-03T12:41:18.202Z,15.60
2023-04-03T12:44:27.346Z,16.00
2023-04-03T12:46:55.068Z,16.10
2023-04-03T12:49:34.088Z,16.50
2023-04-03T12:52:01.538Z,16.50
2023-04-03T12:54:31.848Z,16.50
2023-04-03T12:57:21.938Z,16.50
2023-04-03T12:59:49.641Z,15.90
2023-04-03T13:02:24.456Z,15.80
2023-04-03T13:05:00.312Z,15.50
2023-04-03T13:07:29.393Z,15.60
2023-04-03T13:09:58.464Z,15.60
2023-04-03T13:12:25.438Z,15.90
2023-04-03T13:15:01.306Z,16.20
2023-04-03T13:17:28.894Z,16.00
2023-04-03T13:19:56.155Z,16.00
2023-04-03T13:22:38.240Z,15.90
2023-04-03T13:25:09.200Z,15.90
2023-04-03T13:27:37.124Z,16.30
2023-04-03T13:30:05.664Z,16.00
2023-04-03T13:32:33.736Z,15.50
2023-04-03T13:35:15.488Z,15.20
2023-04-03T13:37:57.279Z,15.50
2023-04-03T13:40:28.009Z,15.40
2023-04-03T13:43:07.286Z,15.00
2023-04-03T13:45:36.064Z,15.10
2023-04-03T13:48:20.223Z,14.70
2023-04-03T13:51:04.554Z,14.60
2023-04-03T13:53:33.475Z,14.40
2023-04-03T13:56:19.420Z,14.70
2023-04-03T13:59:15.737Z,14.60
2023-04-03T14:01:48.473Z,14.70
2023-04-03T14:04:23.769Z,14.70
2023-04-03T14:06:51.026Z,14.40
2023-04-03T14:09:20.089Z,14.70
2023-04-03T14:11:48.261Z,14.50
2023-04-03T14:14:18.401Z,14.30
2023-04-03T14:16:52.072Z,14.60
2023-04-03T14:19:23.214Z,14.90
2023-04-03T14:21:50.649Z,15.20
2023-04-03T14:24:18.178Z,15.00
2023-04-03T14:26:45.784Z,15.10
2023-04-03T14:29:13.978Z,14.90
2023-04-03T14:31:42.423Z,14.90
2023-04-03T14:34:11.881Z,15.30
2023-04-03T14:36:40.092Z,15.30
2023-04-03T14:39:08.791Z,15.10
2023-04-03T14:41:35.904Z,15.40
2023-04-03T14:44:03.081Z,15.70
2023-04-03T14:46:48.390Z,15.60
2023-04-03T14:49:25.285Z,15.20
2023-04-03T14:51:52.171Z,15.60
2023-04-03T14:54:22.049Z,15.30
2023-04-03T14:56:49.070Z,15.40
2023-04-03T14:59:16.095Z,15.50
2023-04-03T15:01:42.985Z,16.00
2023-04-03T15:04:21.238Z,16.20
2023-04-03T15:06:49.179Z,16.00
2023-04-03T15:09:26.144Z,16.00
2023-04-03T15:11:55.456Z,16.10
2023-04-03T15:14:35.461Z,16.00
2023-04-03T15:17:07.917Z,16.00
2023-04-03T15:19:39.388Z,15.90
2023-04-03T15:22:06.440Z,15.60
2023-04-03T15:24:33.429Z,15.70
2023-04-03T15:27:01.860Z,15.90
2023-04-03T15:29:28.959Z,15.40
2023-04-03T15:31:56.043Z,15.90
2023-04-03T15:34:23.255Z,15.70
2023-04-03T15:36:51.095Z,15.10
2023-04-03T15:39:18.116Z,15.40
2023-04-03T15:41:45.996Z,15.20
2023-04-03T15:44:12.884Z,14.80
2023-04-03T15:46:40.180Z,14.70
2023-04-03T15:49:07.152Z,14.70
2023-04-03T15:51:34.000Z,14.40
2023-04-03T15:54:00.853Z,14.20
2023-04-03T15:56:27.708Z,14.40
2023-04-03T15:58:54.578Z,14.20
2023-04-03T16:01:21.598Z,14.00
2023-04-03T16:03:49.097Z,13.70
2023-04-03T16:06:17.407Z,13.80
2023-04-03T16:08:44.570Z,13.80
2023-04-03T16:11:11.486Z,13.80
2023-04-03T16:13:38.403Z,13.70
2023-04-03T16:16:05.972Z,13.60
2023-04-03T16:18:35.087Z,13.40
2023-04-03T16:21:02.126Z,13.10
2023-04-03T16:23:29.172Z,13.10
2023-04-03T16:25:56.060Z,12.50
2023-04-03T16:28:22.985Z,12.30
2023-04-03T16:30:49.901Z,11.50
2023-04-03T16:33:16.844Z,10.70
2023-04-03T16:35:43.764Z,10.30
2023-04-03T16:38:10.810Z,10.00
2023-04-03T16:40:37.688Z,9.70
2023-04-03T16:43:04.559Z,9.50
2023-04-03T16:45:31.462Z,9.00
2023-04-03T16:47:58.389Z,8.60
2023-04-03T16:50:25.439Z,8.50
2023-04-03T16:52:52.401Z,8.40
2023-04-03T16:55:19.350Z,8.00
2023-04-03T16:57:46.205Z,7.70
2023-04-03T17:00:13.635Z,7.60
2023-04-03T17:02:40.882Z,7.50
2023-04-03T17:05:08.409Z,7.50
2023-04-03T17:07:35.418Z,7.00
2023-04-03T17:10:02.561Z,6.90
2023-04-03T17:12:29.495Z,6.80
2023-04-03T17:14:56.398Z,6.70
2023-04-03T17:17:25.227Z,6.60
2023-04-03T17:19:52.460Z,6.50
2023-04-03T17:22:19.307Z,6.40
2023-04-03T17:24:46.381Z,6.30
2023-04-03T17:27:13.351Z,6.10
2023-04-03T17:29:40.249Z,6.00
2023-04-03T17:32:07.319Z,5.80
2023-04-03T17:34:34.259Z,5.80
2023-04-03T17:37:01.169Z,5.60
2023-04-03T17:39:28.094Z,5.50
2023-04-03T17:41:54.937Z,5.30
2023-04-03T17:44:22.681Z,5.30
2023-04-03T17:46:49.654Z,5.20
2023-04-03T17:49:16.608Z,5.00
2023-04-03T17:51:43.476Z,5.00
2023-04-03T17:54:10.477Z,4.80
2023-04-03T17:56:37.500Z,4.70
2023-04-03T17:59:04.534Z,4.60
2023-04-03T18:01:35.818Z,4.60
2023-04-03T18:04:04.972Z,4.50
2023-04-03T18:06:42.944Z,4.40
2023-04-03T18:09:21.625Z,4.30
2023-04-03T18:11:49.775Z,4.20
2023-04-03T18:14:19.910Z,4.10
2023-04-03T18:16:46.901Z,4.10
2023-04-03T18:21:43.885Z,4.00
2023-04-03T18:24:17.550Z,3.90
2023-04-03T18:26:48.116Z,3.80
2023-04-03T18:29:15.226Z,3.70
2023-04-03T18:31:45.674Z,3.70
2023-04-03T18:34:12.529Z,3.60
2023-04-03T18:36:40.184Z,3.50
2023-04-03T18:39:07.191Z,3.50
2023-04-03T18:41:36.911Z,3.40
2023-04-03T18:44:07.007Z,3.30
2023-04-03T18:46:34.476Z,3.30
2023-04-03T18:49:01.529Z,3.30
2023-04-03T18:51:28.554Z,3.30
2023-04-03T18:53:55.850Z,3.20
2023-04-03T18:56:22.970Z,3.10
2023-04-03T18:58:49.864Z,3.10
2023-04-03T19:01:17.379Z,3.00
2023-04-03T19:03:44.673Z,2.90
2023-04-03T19:06:11.624Z,2.90
2023-04-03T19:08:38.766Z,2.80
2023-04-03T19:11:05.664Z,2.80
2023-04-03T19:13:32.703Z,2.80
2023-04-03T19:16:00.246Z,2.70
2023-04-03T19:18:27.659Z,2.70
2023-04-03T19:20:58.034Z,2.60
2023-04-03T19:23:25.775Z,2.50
2023-04-03T19:26:05.628Z,2.50
2023-04-03T19:28:32.567Z,2.40
2023-04-03T19:31:00.802Z,2.40
2023-04-03T19:33:28.471Z,2.30
2023-04-03T19:35:55.551Z,2.30
2023-04-03T19:38:22.442Z,2.50
2023-04-03T19:40:49.401Z,2.40
2023-04-03T19:43:17.251Z,2.40
2023-04-03T19:45:44.698Z,2.30
2023-04-03T19:48:11.622Z,2.20
2023-04-03T19:50:38.598Z,2.20
2023-04-03T19:53:05.626Z,2.10
2023-04-03T19:55:32.481Z,2.10
2023-04-03T19:58:00.602Z,2.10
2023-04-03T20:00:29.084Z,2.00
2023-04-03T20:02:56.243Z,2.10
2023-04-03T20:05:23.697Z,2.00
2023-04-03T20:07:50.890Z,2.00
2023-04-03T20:10:17.968Z,1.90
2023-04-03T20:12:44.849Z,1.80
2023-04-03T20:15:12.108Z,1.80
2023-04-03T20:17:39.606Z,1.80
2023-04-03T20:20:07.336Z,1.70
2023-04-03T20:22:36.319Z,1.70
2023-04-03T20:25:08.600Z,1.70
2023-04-03T20:27:35.957Z,1.50
2023-04-03T20:30:05.059Z,1.50
2023-04-03T20:32:32.356Z,1.30
2023-04-03T20:35:04.345Z,1.20
2023-04-03T20:37:32.629Z,1.30
2023-04-03T20:39:59.574Z,1.20
2023-04-03T20:42:26.586Z,1.20
2023-04-03T20:44:53.498Z,1.40
2023-04-03T20:47:20.419Z,1.30
2023-04-03T20:49:47.384Z,1.30
2023-04-03T20:52:14.417Z,1.20
2023-04-03T20:54:41.303Z,1.20
2023-04-03T20:57:08.261Z,1.20
2023-04-03T20:59:35.274Z,1.10
2023-04-03T21:02:02.143Z,1.00
2023-04-03T21:04:32.394Z,1.10
2023-04-03T21:07:36.548Z,1.10
2023-04-03T21:10:41.042Z,1.00
2023-04-03T21:13:45.534Z,1.00
2023-04-03T21:16:12.360Z,1.00
2023-04-03T21:18:49.015Z,1.10
2023-04-03T21:21:21.019Z,1.10
2023-04-03T21:23:48.430Z,1.10
2023-04-03T21:26:16.577Z,1.20
2023-04-03T21:28:43.556Z,1.00
2023-04-03T21:31:10.787Z,1.10
2023-04-03T21:33:38.372Z,1.10
2023-04-03T21:36:05.371Z,1.10
2023-04-03T21:38:32.265Z,1.10
2023-04-03T21:40:59.471Z,1.00
2023-04-03T21:43:26.914Z,1.00
2023-04-03T21:45:58.020Z,0.90
2023-04-03T21:48:25.464Z,0.80
2023-04-03T21:50:52.415Z,0.70
2023-04-03T21:53:23.359Z,0.50
2023-04-03T21:55:54.187Z,0.40
2023-04-03T21:58:21.569Z,0.40
2023-04-03T22:00:48.558Z,0.30
2023-04-03T22:03:21.597Z,0.20
2023-04-03T22:05:48.593Z,0.10
2023-04-03T22:08:15.587Z,0.10
2023-04-03T22:10:42.530Z,0.00
2023-04-03T22:13:09.478Z,0.00
2023-04-03T22:15:37.147Z,0.00
2023-04-03T22:18:04.120Z,0.00
2023-04-03T22:20:31.033Z,-0.10
2023-04-03T22:22:57.993Z,-0.20
2023-04-03T22:25:24.867Z,-0.20
2023-04-03T22:27:51.779Z,-0.30
2023-04-03T22:30:18.646Z,-0.40
2023-04-03T22:32:45.526Z,-0.40
2023-04-03T22:35:12.494Z,-0.50
2023-04-03T22:37:39.437Z,-0.60
2023-04-03T22:40:07.015Z,-0.60
2023-04-03T22:42:33.881Z,-0.70
2023-04-03T22:45:00.716Z,-0.70
2023-04-03T22:47:27.625Z,-0.80
2023-04-03T22:49:54.492Z,-0.70
2023-04-03T22:52:21.438Z,-0.80
2023-04-03T22:54:48.327Z,-0.80
2023-04-03T22:57:15.213Z,-0.90
2023-04-03T22:59:42.060Z,-0.90
2023-04-03T23:02:08.974Z,-0.90
2023-04-03T23:04:35.880Z,-0.90
2023-04-03T23:07:02.782Z,-1.00
2023-04-03T23:09:29.640Z,-1.00
2023-04-03T23:11:56.519Z,-1.00
2023-04-03T23:14:23.466Z,-1.10
2023-04-03T23:16:50.358Z,-1.10
2023-04-03T23:19:17.387Z,-1.20
2023-04-03T23:21:44.285Z,-1.20
2023-04-03T23:24:11.496Z,-1.10
2023-04-03T23:26:38.329Z,-1.10
2023-04-03T23:29:05.205Z,-1.10
2023-04-03T23:31:32.054Z,-1.20
2023-04-03T23:33:58.999Z,-1.30
2023-04-03T23:36:25.883Z,-1.20
2023-04-03T23:38:56.457Z,-1.10
2023-04-03T23:41:23.526Z,-1.10
2023-04-03T23:43:50.409Z,-1.10
2023-04-03T23:46:17.317Z,-1.20
2023-04-03T23:48:44.206Z,-1.20
2023-04-03T23:51:11.062Z,-1.10
2023-04-03T23:53:38.004Z,-1.10
2023-04-03T23:56:05.085Z,-1.10
2023-04-03T23:58:32.430Z,-1.10
